sensor_id;sensor_type;location;lat;lon;timestamp;temperature;humidity
24408;DHT22;12542;50.924;4.516;2024-03-22T00:00:15;13.90;99.90
24408;DHT22;12542;50.924;4.516;2024-03-22T00:02:41;13.90;99.90
24408;DHT22;12542;50.924;4.516;2024-03-22T00:05:06;14.00;99.90
24408;DHT22;12542;50.924;4.516;2024-03-22T00:07:32;14.00;99.90
24408;DHT22;12542;50.924;4.516;2024-03-22T00:09:58;14.20;99.90
24408;DHT22;12542;50.924;4.516;2024-03-22T00:12:23;14.20;99.90
24408;DHT22;12542;50.924;4.516;2024-03-22T00:14:49;14.20;99.90
24408;DHT22;12542;50.924;4.516;2024-03-22T00:17:17;14.20;99.90
24408;DHT22;12542;50.924;4.516;2024-03-22T00:19:42;14.20;99.90
24408;DHT22;12542;50.924;4.516;2024-03-22T00:22:08;14.10;99.90
24408;DHT22;12542;50.924;4.516;2024-03-22T00:24:34;14.20;99.90
24408;DHT22;12542;50.924;4.516;2024-03-22T00:27:02;14.20;99.90
24408;DHT22;12542;50.924;4.516;2024-03-22T00:29:27;14.20;99.90
24408;DHT22;12542;50.924;4.516;2024-03-22T00:31:53;14.30;99.90
24408;DHT22;12542;50.924;4.516;2024-03-22T00:34:19;14.40;99.90
24408;DHT22;12542;50.924;4.516;2024-03-22T00:36:45;14.50;99.90
24408;DHT22;12542;50.924;4.516;2024-03-22T00:39:11;14.50;99.90
24408;DHT22;12542;50.924;4.516;2024-03-22T00:41:38;14.60;99.90
24408;DHT22;12542;50.924;4.516;2024-03-22T00:44:04;14.60;99.90
24408;DHT22;12542;50.924;4.516;2024-03-22T00:46:29;14.60;99.90
24408;DHT22;12542;50.924;4.516;2024-03-22T00:48:55;14.70;99.90
24408;DHT22;12542;50.924;4.516;2024-03-22T00:51:21;14.60;99.90
24408;DHT22;12542;50.924;4.516;2024-03-22T00:53:47;14.40;99.90
24408;DHT22;12542;50.924;4.516;2024-03-22T00:56:13;14.40;99.90
24408;DHT22;12542;50.924;4.516;2024-03-22T00:58:38;14.40;99.90
24408;DHT22;12542;50.924;4.516;2024-03-22T01:01:04;14.50;99.90
24408;DHT22;12542;50.924;4.516;2024-03-22T01:03:30;14.40;99.90
24408;DHT22;12542;50.924;4.516;2024-03-22T01:05:55;14.30;99.90
24408;DHT22;12542;50.924;4.516;2024-03-22T01:08:22;14.30;99.90
24408;DHT22;12542;50.924;4.516;2024-03-22T01:10:48;14.40;99.90
24408;DHT22;12542;50.924;4.516;2024-03-22T01:13:14;14.40;99.90
24408;DHT22;12542;50.924;4.516;2024-03-22T01:15:39;14.30;99.90
24408;DHT22;12542;50.924;4.516;2024-03-22T01:18:05;14.20;99.90
24408;DHT22;12542;50.924;4.516;2024-03-22T01:20:31;14.20;99.90
24408;DHT22;12542;50.924;4.516;2024-03-22T01:22:58;14.20;99.90
24408;DHT22;12542;50.924;4.516;2024-03-22T01:25:24;14.20;99.90
24408;DHT22;12542;50.924;4.516;2024-03-22T01:27:49;14.20;99.90
24408;DHT22;12542;50.924;4.516;2024-03-22T01:30:15;14.20;99.90
24408;DHT22;12542;50.924;4.516;2024-03-22T01:32:41;14.10;99.90
24408;DHT22;12542;50.924;4.516;2024-03-22T01:35:07;14.10;99.90
24408;DHT22;12542;50.924;4.516;2024-03-22T01:37:33;14.00;99.90
24408;DHT22;12542;50.924;4.516;2024-03-22T01:39:59;14.00;99.90
24408;DHT22;12542;50.924;4.516;2024-03-22T01:42:26;13.90;99.90
24408;DHT22;12542;50.924;4.516;2024-03-22T01:44:52;13.90;99.90
24408;DHT22;12542;50.924;4.516;2024-03-22T01:47:18;13.80;99.90
24408;DHT22;12542;50.924;4.516;2024-03-22T01:49:44;13.90;99.90
24408;DHT22;12542;50.924;4.516;2024-03-22T01:52:09;13.80;99.90
24408;DHT22;12542;50.924;4.516;2024-03-22T01:54:35;13.80;99.90
24408;DHT22;12542;50.924;4.516;2024-03-22T01:57:01;13.70;99.90
24408;DHT22;12542;50.924;4.516;2024-03-22T01:59:28;13.70;99.90
24408;DHT22;12542;50.924;4.516;2024-03-22T02:01:54;13.70;99.90
24408;DHT22;12542;50.924;4.516;2024-03-22T02:04:20;13.70;99.90
24408;DHT22;12542;50.924;4.516;2024-03-22T02:06:45;13.60;99.90
24408;DHT22;12542;50.924;4.516;2024-03-22T02:09:13;13.60;99.90
24408;DHT22;12542;50.924;4.516;2024-03-22T02:11:42;13.40;99.90
24408;DHT22;12542;50.924;4.516;2024-03-22T02:14:08;13.40;99.90
24408;DHT22;12542;50.924;4.516;2024-03-22T02:16:33;13.30;99.90
24408;DHT22;12542;50.924;4.516;2024-03-22T02:18:59;13.20;99.90
24408;DHT22;12542;50.924;4.516;2024-03-22T02:21:25;13.20;99.90
24408;DHT22;12542;50.924;4.516;2024-03-22T02:23:50;13.30;99.90
24408;DHT22;12542;50.924;4.516;2024-03-22T02:26:16;13.30;99.90
24408;DHT22;12542;50.924;4.516;2024-03-22T02:28:42;13.30;99.90
24408;DHT22;12542;50.924;4.516;2024-03-22T02:31:07;13.30;99.90
24408;DHT22;12542;50.924;4.516;2024-03-22T02:33:33;13.20;99.90
24408;DHT22;12542;50.924;4.516;2024-03-22T02:35:59;13.30;99.90
24408;DHT22;12542;50.924;4.516;2024-03-22T02:38:24;13.30;99.90
24408;DHT22;12542;50.924;4.516;2024-03-22T02:40:52;13.30;99.90
24408;DHT22;12542;50.924;4.516;2024-03-22T02:43:18;13.30;99.90
24408;DHT22;12542;50.924;4.516;2024-03-22T02:45:44;13.30;99.90
24408;DHT22;12542;50.924;4.516;2024-03-22T02:48:10;13.30;99.90
24408;DHT22;12542;50.924;4.516;2024-03-22T02:50:37;13.30;99.90
24408;DHT22;12542;50.924;4.516;2024-03-22T02:53:04;13.40;99.90
24408;DHT22;12542;50.924;4.516;2024-03-22T02:55:30;13.50;99.90
24408;DHT22;12542;50.924;4.516;2024-03-22T02:57:56;13.50;99.90
24408;DHT22;12542;50.924;4.516;2024-03-22T03:00:22;13.50;99.90
24408;DHT22;12542;50.924;4.516;2024-03-22T03:02:48;13.30;99.90
24408;DHT22;12542;50.924;4.516;2024-03-22T03:05:14;13.40;99.90
24408;DHT22;12542;50.924;4.516;2024-03-22T03:07:40;13.40;99.90
24408;DHT22;12542;50.924;4.516;2024-03-22T03:10:06;13.40;99.90
24408;DHT22;12542;50.924;4.516;2024-03-22T03:12:32;13.50;99.90
24408;DHT22;12542;50.924;4.516;2024-03-22T03:14:58;13.50;99.90
24408;DHT22;12542;50.924;4.516;2024-03-22T03:17:23;13.50;99.90
24408;DHT22;12542;50.924;4.516;2024-03-22T03:19:49;13.60;99.90
24408;DHT22;12542;50.924;4.516;2024-03-22T03:22:15;13.60;99.90
24408;DHT22;12542;50.924;4.516;2024-03-22T03:24:41;13.60;99.90
24408;DHT22;12542;50.924;4.516;2024-03-22T03:27:06;13.70;99.90
24408;DHT22;12542;50.924;4.516;2024-03-22T03:29:32;13.50;99.90
24408;DHT22;12542;50.924;4.516;2024-03-22T03:31:58;13.50;99.90
24408;DHT22;12542;50.924;4.516;2024-03-22T03:34:24;13.50;99.90
24408;DHT22;12542;50.924;4.516;2024-03-22T03:36:49;13.60;99.90
24408;DHT22;12542;50.924;4.516;2024-03-22T03:39:15;13.60;99.90
24408;DHT22;12542;50.924;4.516;2024-03-22T03:41:41;13.50;99.90
24408;DHT22;12542;50.924;4.516;2024-03-22T03:44:07;13.40;99.90
24408;DHT22;12542;50.924;4.516;2024-03-22T03:46:32;13.40;99.90
24408;DHT22;12542;50.924;4.516;2024-03-22T03:48:59;13.50;99.90
24408;DHT22;12542;50.924;4.516;2024-03-22T03:51:24;13.40;99.90
24408;DHT22;12542;50.924;4.516;2024-03-22T03:53:50;13.50;99.90
24408;DHT22;12542;50.924;4.516;2024-03-22T03:56:16;13.40;99.90
24408;DHT22;12542;50.924;4.516;2024-03-22T03:58:41;13.30;99.90
24408;DHT22;12542;50.924;4.516;2024-03-22T04:01:08;13.40;99.90
24408;DHT22;12542;50.924;4.516;2024-03-22T04:03:34;13.40;99.90
24408;DHT22;12542;50.924;4.516;2024-03-22T04:06:00;13.40;99.90
24408;DHT22;12542;50.924;4.516;2024-03-22T04:08:26;13.30;99.90
24408;DHT22;12542;50.924;4.516;2024-03-22T04:10:53;13.10;99.90
24408;DHT22;12542;50.924;4.516;2024-03-22T04:13:19;13.20;99.90
24408;DHT22;12542;50.924;4.516;2024-03-22T04:15:44;13.20;99.90
24408;DHT22;12542;50.924;4.516;2024-03-22T04:18:10;13.20;99.90
24408;DHT22;12542;50.924;4.516;2024-03-22T04:20:36;13.20;99.90
24408;DHT22;12542;50.924;4.516;2024-03-22T04:23:01;13.30;99.90
24408;DHT22;12542;50.924;4.516;2024-03-22T04:25:27;13.30;99.90
24408;DHT22;12542;50.924;4.516;2024-03-22T04:27:53;13.30;99.90
24408;DHT22;12542;50.924;4.516;2024-03-22T04:30:18;13.30;99.90
24408;DHT22;12542;50.924;4.516;2024-03-22T04:32:46;13.40;99.90
24408;DHT22;12542;50.924;4.516;2024-03-22T04:35:12;13.40;99.90
24408;DHT22;12542;50.924;4.516;2024-03-22T04:37:37;13.30;99.90
24408;DHT22;12542;50.924;4.516;2024-03-22T04:40:04;13.30;99.90
24408;DHT22;12542;50.924;4.516;2024-03-22T04:42:29;13.10;99.90
24408;DHT22;12542;50.924;4.516;2024-03-22T04:44:55;13.20;99.90
24408;DHT22;12542;50.924;4.516;2024-03-22T04:47:21;13.20;99.90
24408;DHT22;12542;50.924;4.516;2024-03-22T04:49:47;13.30;99.90
24408;DHT22;12542;50.924;4.516;2024-03-22T04:52:12;13.30;99.90
24408;DHT22;12542;50.924;4.516;2024-03-22T04:54:38;13.40;99.90
24408;DHT22;12542;50.924;4.516;2024-03-22T04:57:04;13.50;99.90
24408;DHT22;12542;50.924;4.516;2024-03-22T04:59:29;13.40;99.90
24408;DHT22;12542;50.924;4.516;2024-03-22T05:01:55;13.20;99.90
24408;DHT22;12542;50.924;4.516;2024-03-22T05:04:21;13.00;99.90
24408;DHT22;12542;50.924;4.516;2024-03-22T05:06:46;13.00;99.90
24408;DHT22;12542;50.924;4.516;2024-03-22T05:09:12;13.00;99.90
24408;DHT22;12542;50.924;4.516;2024-03-22T05:11:38;12.90;99.90
24408;DHT22;12542;50.924;4.516;2024-03-22T05:14:06;13.10;99.90
24408;DHT22;12542;50.924;4.516;2024-03-22T05:16:31;13.10;99.90
24408;DHT22;12542;50.924;4.516;2024-03-22T05:18:57;13.10;99.90
24408;DHT22;12542;50.924;4.516;2024-03-22T05:21:23;13.10;99.90
24408;DHT22;12542;50.924;4.516;2024-03-22T05:23:49;13.20;99.90
24408;DHT22;12542;50.924;4.516;2024-03-22T05:26:14;13.10;99.90
24408;DHT22;12542;50.924;4.516;2024-03-22T05:28:40;13.00;99.90
24408;DHT22;12542;50.924;4.516;2024-03-22T05:31:06;13.10;99.90
24408;DHT22;12542;50.924;4.516;2024-03-22T05:33:31;13.10;99.90
24408;DHT22;12542;50.924;4.516;2024-03-22T05:35:57;13.00;99.90
24408;DHT22;12542;50.924;4.516;2024-03-22T05:38:23;13.10;99.90
24408;DHT22;12542;50.924;4.516;2024-03-22T05:40:49;13.10;99.90
24408;DHT22;12542;50.924;4.516;2024-03-22T05:43:14;13.00;99.90
24408;DHT22;12542;50.924;4.516;2024-03-22T05:45:40;13.10;99.90
24408;DHT22;12542;50.924;4.516;2024-03-22T05:48:06;13.00;99.90
24408;DHT22;12542;50.924;4.516;2024-03-22T05:50:32;12.90;99.90
24408;DHT22;12542;50.924;4.516;2024-03-22T05:52:58;12.90;99.90
24408;DHT22;12542;50.924;4.516;2024-03-22T05:55:23;12.80;99.90
24408;DHT22;12542;50.924;4.516;2024-03-22T05:57:52;12.90;99.90
24408;DHT22;12542;50.924;4.516;2024-03-22T06:00:18;12.90;99.90
24408;DHT22;12542;50.924;4.516;2024-03-22T06:02:44;13.00;99.90
24408;DHT22;12542;50.924;4.516;2024-03-22T06:05:09;13.00;99.90
24408;DHT22;12542;50.924;4.516;2024-03-22T06:07:35;12.90;99.90
24408;DHT22;12542;50.924;4.516;2024-03-22T06:10:08;12.80;99.90
24408;DHT22;12542;50.924;4.516;2024-03-22T06:12:35;12.90;99.90
24408;DHT22;12542;50.924;4.516;2024-03-22T06:15:03;12.90;99.90
24408;DHT22;12542;50.924;4.516;2024-03-22T06:17:32;12.90;99.90
24408;DHT22;12542;50.924;4.516;2024-03-22T06:19:58;12.90;99.90
24408;DHT22;12542;50.924;4.516;2024-03-22T06:22:27;12.90;99.90
24408;DHT22;12542;50.924;4.516;2024-03-22T06:24:53;12.80;99.90
24408;DHT22;12542;50.924;4.516;2024-03-22T06:27:19;12.80;99.90
24408;DHT22;12542;50.924;4.516;2024-03-22T06:29:45;12.80;99.90
24408;DHT22;12542;50.924;4.516;2024-03-22T06:32:11;12.70;99.90
24408;DHT22;12542;50.924;4.516;2024-03-22T06:34:37;12.70;99.90
24408;DHT22;12542;50.924;4.516;2024-03-22T06:37:03;12.70;99.90
24408;DHT22;12542;50.924;4.516;2024-03-22T06:39:29;12.80;99.90
24408;DHT22;12542;50.924;4.516;2024-03-22T06:41:55;12.80;99.90
24408;DHT22;12542;50.924;4.516;2024-03-22T06:44:21;12.80;99.90
24408;DHT22;12542;50.924;4.516;2024-03-22T06:46:49;12.90;99.90
24408;DHT22;12542;50.924;4.516;2024-03-22T06:49:15;12.80;99.90
24408;DHT22;12542;50.924;4.516;2024-03-22T06:51:41;12.80;99.90
24408;DHT22;12542;50.924;4.516;2024-03-22T06:54:06;12.80;99.90
24408;DHT22;12542;50.924;4.516;2024-03-22T06:56:34;12.90;99.90
24408;DHT22;12542;50.924;4.516;2024-03-22T06:59:00;12.90;99.90
24408;DHT22;12542;50.924;4.516;2024-03-22T07:01:28;12.90;99.90
24408;DHT22;12542;50.924;4.516;2024-03-22T07:03:53;12.80;99.90
24408;DHT22;12542;50.924;4.516;2024-03-22T07:06:19;12.80;99.90
24408;DHT22;12542;50.924;4.516;2024-03-22T07:08:45;12.70;99.90
24408;DHT22;12542;50.924;4.516;2024-03-22T07:11:11;12.80;99.90
24408;DHT22;12542;50.924;4.516;2024-03-22T07:13:37;12.80;99.90
24408;DHT22;12542;50.924;4.516;2024-03-22T07:16:03;12.90;99.90
24408;DHT22;12542;50.924;4.516;2024-03-22T07:18:29;13.00;99.90
24408;DHT22;12542;50.924;4.516;2024-03-22T07:20:55;13.00;99.90
24408;DHT22;12542;50.924;4.516;2024-03-22T07:23:21;12.90;99.90
24408;DHT22;12542;50.924;4.516;2024-03-22T07:25:51;13.00;99.90
24408;DHT22;12542;50.924;4.516;2024-03-22T07:28:17;13.00;99.90
24408;DHT22;12542;50.924;4.516;2024-03-22T07:30:42;12.90;99.90
24408;DHT22;12542;50.924;4.516;2024-03-22T07:33:10;13.00;99.90
24408;DHT22;12542;50.924;4.516;2024-03-22T07:35:39;13.00;99.90
24408;DHT22;12542;50.924;4.516;2024-03-22T07:38:04;13.00;99.90
24408;DHT22;12542;50.924;4.516;2024-03-22T07:40:30;13.10;99.90
24408;DHT22;12542;50.924;4.516;2024-03-22T07:42:56;13.00;99.90
24408;DHT22;12542;50.924;4.516;2024-03-22T07:45:22;13.00;99.90
24408;DHT22;12542;50.924;4.516;2024-03-22T07:47:47;13.00;99.90
24408;DHT22;12542;50.924;4.516;2024-03-22T07:50:14;12.90;99.90
24408;DHT22;12542;50.924;4.516;2024-03-22T07:52:39;12.90;99.90
24408;DHT22;12542;50.924;4.516;2024-03-22T07:55:05;13.00;99.90
24408;DHT22;12542;50.924;4.516;2024-03-22T07:57:31;13.20;99.90
24408;DHT22;12542;50.924;4.516;2024-03-22T07:59:59;13.30;99.90
24408;DHT22;12542;50.924;4.516;2024-03-22T08:02:27;13.30;99.90
24408;DHT22;12542;50.924;4.516;2024-03-22T08:04:53;13.30;99.90
24408;DHT22;12542;50.924;4.516;2024-03-22T08:07:19;13.40;99.90
24408;DHT22;12542;50.924;4.516;2024-03-22T08:09:45;13.20;99.90
24408;DHT22;12542;50.924;4.516;2024-03-22T08:12:10;13.40;99.90
24408;DHT22;12542;50.924;4.516;2024-03-22T08:14:36;13.60;99.90
24408;DHT22;12542;50.924;4.516;2024-03-22T08:17:02;13.50;99.90
24408;DHT22;12542;50.924;4.516;2024-03-22T08:19:28;13.60;99.90
24408;DHT22;12542;50.924;4.516;2024-03-22T08:21:58;13.60;99.90
24408;DHT22;12542;50.924;4.516;2024-03-22T08:24:24;13.50;99.90
24408;DHT22;12542;50.924;4.516;2024-03-22T08:26:50;13.60;99.90
24408;DHT22;12542;50.924;4.516;2024-03-22T08:29:16;13.50;99.90
24408;DHT22;12542;50.924;4.516;2024-03-22T08:31:44;13.60;99.90
24408;DHT22;12542;50.924;4.516;2024-03-22T08:34:09;13.80;99.90
24408;DHT22;12542;50.924;4.516;2024-03-22T08:36:35;13.80;99.90
24408;DHT22;12542;50.924;4.516;2024-03-22T08:39:01;13.40;99.90
24408;DHT22;12542;50.924;4.516;2024-03-22T08:41:27;13.40;99.90
24408;DHT22;12542;50.924;4.516;2024-03-22T08:43:53;13.50;99.90
24408;DHT22;12542;50.924;4.516;2024-03-22T08:46:19;13.60;99.90
24408;DHT22;12542;50.924;4.516;2024-03-22T08:48:47;13.70;99.90
24408;DHT22;12542;50.924;4.516;2024-03-22T08:51:12;13.80;99.90
24408;DHT22;12542;50.924;4.516;2024-03-22T08:53:38;14.10;99.90
24408;DHT22;12542;50.924;4.516;2024-03-22T08:56:04;14.30;99.90
24408;DHT22;12542;50.924;4.516;2024-03-22T08:58:29;14.40;99.90
24408;DHT22;12542;50.924;4.516;2024-03-22T09:00:58;14.60;99.90
24408;DHT22;12542;50.924;4.516;2024-03-22T09:03:26;14.40;99.90
24408;DHT22;12542;50.924;4.516;2024-03-22T09:05:55;14.70;99.90
24408;DHT22;12542;50.924;4.516;2024-03-22T09:08:21;14.80;99.90
24408;DHT22;12542;50.924;4.516;2024-03-22T09:10:49;14.80;99.90
24408;DHT22;12542;50.924;4.516;2024-03-22T09:13:15;14.80;99.90
24408;DHT22;12542;50.924;4.516;2024-03-22T09:15:41;14.80;99.90
24408;DHT22;12542;50.924;4.516;2024-03-22T09:18:07;14.70;99.90
24408;DHT22;12542;50.924;4.516;2024-03-22T09:20:33;14.60;99.90
24408;DHT22;12542;50.924;4.516;2024-03-22T09:23:00;14.80;99.90
24408;DHT22;12542;50.924;4.516;2024-03-22T09:25:26;15.00;99.90
24408;DHT22;12542;50.924;4.516;2024-03-22T09:27:52;15.10;99.90
24408;DHT22;12542;50.924;4.516;2024-03-22T09:30:18;15.10;99.90
24408;DHT22;12542;50.924;4.516;2024-03-22T09:32:44;14.90;99.90
24408;DHT22;12542;50.924;4.516;2024-03-22T09:35:10;14.90;99.90
24408;DHT22;12542;50.924;4.516;2024-03-22T09:37:37;14.90;99.90
24408;DHT22;12542;50.924;4.516;2024-03-22T09:40:03;15.00;99.90
24408;DHT22;12542;50.924;4.516;2024-03-22T09:42:33;15.10;99.90
24408;DHT22;12542;50.924;4.516;2024-03-22T09:45:02;14.90;99.90
24408;DHT22;12542;50.924;4.516;2024-03-22T09:47:28;14.90;99.90
24408;DHT22;12542;50.924;4.516;2024-03-22T09:49:56;14.90;99.90
24408;DHT22;12542;50.924;4.516;2024-03-22T09:52:24;14.90;99.90
24408;DHT22;12542;50.924;4.516;2024-03-22T09:54:53;14.80;99.90
24408;DHT22;12542;50.924;4.516;2024-03-22T09:57:20;14.90;99.90
24408;DHT22;12542;50.924;4.516;2024-03-22T09:59:46;14.80;99.90
24408;DHT22;12542;50.924;4.516;2024-03-22T10:02:13;14.90;99.90
24408;DHT22;12542;50.924;4.516;2024-03-22T10:04:42;14.80;99.90
24408;DHT22;12542;50.924;4.516;2024-03-22T10:07:08;14.90;99.90
24408;DHT22;12542;50.924;4.516;2024-03-22T10:09:35;14.90;99.90
24408;DHT22;12542;50.924;4.516;2024-03-22T10:12:01;15.10;99.90
24408;DHT22;12542;50.924;4.516;2024-03-22T10:14:29;15.10;99.90
24408;DHT22;12542;50.924;4.516;2024-03-22T10:16:55;15.00;99.90
24408;DHT22;12542;50.924;4.516;2024-03-22T10:19:21;15.20;99.90
24408;DHT22;12542;50.924;4.516;2024-03-22T10:21:58;15.20;99.90
24408;DHT22;12542;50.924;4.516;2024-03-22T10:24:24;15.20;99.90
24408;DHT22;12542;50.924;4.516;2024-03-22T10:26:50;15.30;99.90
24408;DHT22;12542;50.924;4.516;2024-03-22T10:29:16;15.20;99.90
24408;DHT22;12542;50.924;4.516;2024-03-22T10:31:42;15.20;99.90
24408;DHT22;12542;50.924;4.516;2024-03-22T10:34:09;15.20;99.90
24408;DHT22;12542;50.924;4.516;2024-03-22T10:36:36;15.20;99.90
24408;DHT22;12542;50.924;4.516;2024-03-22T10:39:03;15.10;99.90
24408;DHT22;12542;50.924;4.516;2024-03-22T10:41:29;15.10;99.90
24408;DHT22;12542;50.924;4.516;2024-03-22T10:43:55;15.10;99.90
24408;DHT22;12542;50.924;4.516;2024-03-22T10:46:21;15.20;99.90
24408;DHT22;12542;50.924;4.516;2024-03-22T10:48:51;15.20;99.90
24408;DHT22;12542;50.924;4.516;2024-03-22T10:51:17;15.20;99.90
24408;DHT22;12542;50.924;4.516;2024-03-22T10:53:43;15.20;99.90
24408;DHT22;12542;50.924;4.516;2024-03-22T10:56:10;15.30;99.90
24408;DHT22;12542;50.924;4.516;2024-03-22T10:58:39;15.30;99.90
24408;DHT22;12542;50.924;4.516;2024-03-22T11:01:06;15.40;99.90
24408;DHT22;12542;50.924;4.516;2024-03-22T11:03:31;15.20;99.90
24408;DHT22;12542;50.924;4.516;2024-03-22T11:06:01;15.20;99.90
24408;DHT22;12542;50.924;4.516;2024-03-22T11:08:31;15.40;99.90
24408;DHT22;12542;50.924;4.516;2024-03-22T11:10:57;15.40;99.90
24408;DHT22;12542;50.924;4.516;2024-03-22T11:13:23;15.40;99.90
24408;DHT22;12542;50.924;4.516;2024-03-22T11:15:49;15.50;99.90
24408;DHT22;12542;50.924;4.516;2024-03-22T11:18:16;15.60;99.90
24408;DHT22;12542;50.924;4.516;2024-03-22T11:20:42;15.60;99.90
24408;DHT22;12542;50.924;4.516;2024-03-22T11:23:09;15.60;99.90
24408;DHT22;12542;50.924;4.516;2024-03-22T11:25:35;15.60;99.90
24408;DHT22;12542;50.924;4.516;2024-03-22T11:28:01;15.50;99.90
24408;DHT22;12542;50.924;4.516;2024-03-22T11:30:31;15.50;99.90
24408;DHT22;12542;50.924;4.516;2024-03-22T11:32:57;15.50;99.90
24408;DHT22;12542;50.924;4.516;2024-03-22T11:35:24;15.50;99.90
24408;DHT22;12542;50.924;4.516;2024-03-22T11:37:50;15.30;99.90
24408;DHT22;12542;50.924;4.516;2024-03-22T11:40:16;15.10;99.90
24408;DHT22;12542;50.924;4.516;2024-03-22T11:42:45;14.80;99.90
24408;DHT22;12542;50.924;4.516;2024-03-22T11:45:12;15.00;99.90
24408;DHT22;12542;50.924;4.516;2024-03-22T11:47:39;15.00;99.90
24408;DHT22;12542;50.924;4.516;2024-03-22T11:50:05;15.00;99.90
24408;DHT22;12542;50.924;4.516;2024-03-22T11:52:31;15.10;99.90
24408;DHT22;12542;50.924;4.516;2024-03-22T11:54:57;15.20;99.90
24408;DHT22;12542;50.924;4.516;2024-03-22T11:57:23;15.20;99.90
24408;DHT22;12542;50.924;4.516;2024-03-22T11:59:50;15.10;99.90
24408;DHT22;12542;50.924;4.516;2024-03-22T12:02:16;15.10;99.90
24408;DHT22;12542;50.924;4.516;2024-03-22T12:04:46;15.30;99.90
24408;DHT22;12542;50.924;4.516;2024-03-22T12:07:16;15.40;99.90
24408;DHT22;12542;50.924;4.516;2024-03-22T12:09:42;15.50;99.90
24408;DHT22;12542;50.924;4.516;2024-03-22T12:12:09;15.40;99.90
24408;DHT22;12542;50.924;4.516;2024-03-22T12:14:35;15.40;99.90
24408;DHT22;12542;50.924;4.516;2024-03-22T12:17:05;15.30;99.90
24408;DHT22;12542;50.924;4.516;2024-03-22T12:19:31;15.10;99.90
24408;DHT22;12542;50.924;4.516;2024-03-22T12:21:57;15.00;99.90
24408;DHT22;12542;50.924;4.516;2024-03-22T12:24:23;14.70;99.90
24408;DHT22;12542;50.924;4.516;2024-03-22T12:26:49;14.70;99.90
24408;DHT22;12542;50.924;4.516;2024-03-22T12:29:18;14.60;99.90
24408;DHT22;12542;50.924;4.516;2024-03-22T12:31:44;14.60;99.90
24408;DHT22;12542;50.924;4.516;2024-03-22T12:34:11;14.60;99.90
24408;DHT22;12542;50.924;4.516;2024-03-22T12:36:37;14.60;99.90
24408;DHT22;12542;50.924;4.516;2024-03-22T12:39:03;14.60;99.90
24408;DHT22;12542;50.924;4.516;2024-03-22T12:41:29;14.50;99.90
24408;DHT22;12542;50.924;4.516;2024-03-22T12:43:55;14.40;99.90
24408;DHT22;12542;50.924;4.516;2024-03-22T12:46:21;14.40;99.90
24408;DHT22;12542;50.924;4.516;2024-03-22T12:48:47;14.50;99.90
24408;DHT22;12542;50.924;4.516;2024-03-22T12:51:12;14.50;99.90
24408;DHT22;12542;50.924;4.516;2024-03-22T12:53:38;14.50;99.90
24408;DHT22;12542;50.924;4.516;2024-03-22T12:56:04;14.50;99.90
24408;DHT22;12542;50.924;4.516;2024-03-22T12:58:30;14.40;99.90
24408;DHT22;12542;50.924;4.516;2024-03-22T13:00:57;14.50;99.90
24408;DHT22;12542;50.924;4.516;2024-03-22T13:03:23;14.60;99.90
24408;DHT22;12542;50.924;4.516;2024-03-22T13:05:49;14.70;99.90
24408;DHT22;12542;50.924;4.516;2024-03-22T13:08:15;14.60;99.90
24408;DHT22;12542;50.924;4.516;2024-03-22T13:10:40;14.60;99.90
24408;DHT22;12542;50.924;4.516;2024-03-22T13:13:09;14.60;99.90
24408;DHT22;12542;50.924;4.516;2024-03-22T13:15:40;14.50;99.90
24408;DHT22;12542;50.924;4.516;2024-03-22T13:18:06;14.40;99.90
24408;DHT22;12542;50.924;4.516;2024-03-22T13:20:32;14.50;99.90
24408;DHT22;12542;50.924;4.516;2024-03-22T13:22:58;14.50;99.90
24408;DHT22;12542;50.924;4.516;2024-03-22T13:25:24;14.60;99.90
24408;DHT22;12542;50.924;4.516;2024-03-22T13:27:50;14.70;99.90
24408;DHT22;12542;50.924;4.516;2024-03-22T13:30:15;14.50;99.90
24408;DHT22;12542;50.924;4.516;2024-03-22T13:32:41;14.50;99.90
24408;DHT22;12542;50.924;4.516;2024-03-22T13:35:07;14.60;99.90
24408;DHT22;12542;50.924;4.516;2024-03-22T13:37:33;14.60;99.90
24408;DHT22;12542;50.924;4.516;2024-03-22T13:39:59;14.60;99.90
24408;DHT22;12542;50.924;4.516;2024-03-22T13:42:25;14.60;99.90
24408;DHT22;12542;50.924;4.516;2024-03-22T13:44:51;14.60;99.90
24408;DHT22;12542;50.924;4.516;2024-03-22T13:47:17;14.70;99.90
24408;DHT22;12542;50.924;4.516;2024-03-22T13:49:43;14.50;99.90
24408;DHT22;12542;50.924;4.516;2024-03-22T13:52:10;14.50;99.90
24408;DHT22;12542;50.924;4.516;2024-03-22T13:54:39;14.50;99.90
24408;DHT22;12542;50.924;4.516;2024-03-22T13:57:04;14.40;99.90
24408;DHT22;12542;50.924;4.516;2024-03-22T13:59:30;14.50;99.90
24408;DHT22;12542;50.924;4.516;2024-03-22T14:01:56;14.50;99.90
24408;DHT22;12542;50.924;4.516;2024-03-22T14:04:22;14.50;99.90
24408;DHT22;12542;50.924;4.516;2024-03-22T14:06:48;14.40;99.90
24408;DHT22;12542;50.924;4.516;2024-03-22T14:09:14;14.40;99.90
24408;DHT22;12542;50.924;4.516;2024-03-22T14:11:41;14.40;99.90
24408;DHT22;12542;50.924;4.516;2024-03-22T14:14:09;14.40;99.90
24408;DHT22;12542;50.924;4.516;2024-03-22T14:16:40;14.40;99.90
24408;DHT22;12542;50.924;4.516;2024-03-22T14:19:07;14.30;99.90
24408;DHT22;12542;50.924;4.516;2024-03-22T14:21:36;14.20;99.90
24408;DHT22;12542;50.924;4.516;2024-03-22T14:24:04;14.40;99.90
24408;DHT22;12542;50.924;4.516;2024-03-22T14:26:30;14.40;99.90
24408;DHT22;12542;50.924;4.516;2024-03-22T14:28:55;14.30;99.90
24408;DHT22;12542;50.924;4.516;2024-03-22T14:31:23;14.40;99.90
24408;DHT22;12542;50.924;4.516;2024-03-22T14:33:53;14.30;99.90
24408;DHT22;12542;50.924;4.516;2024-03-22T14:36:19;14.30;99.90
24408;DHT22;12542;50.924;4.516;2024-03-22T14:38:45;14.00;99.90
24408;DHT22;12542;50.924;4.516;2024-03-22T14:41:10;13.90;99.90
24408;DHT22;12542;50.924;4.516;2024-03-22T14:43:36;13.90;99.90
24408;DHT22;12542;50.924;4.516;2024-03-22T14:46:02;14.00;99.90
24408;DHT22;12542;50.924;4.516;2024-03-22T14:48:30;14.00;99.90
24408;DHT22;12542;50.924;4.516;2024-03-22T14:50:56;14.00;99.90
24408;DHT22;12542;50.924;4.516;2024-03-22T14:53:21;14.00;99.90
24408;DHT22;12542;50.924;4.516;2024-03-22T14:56:02;14.00;99.90
24408;DHT22;12542;50.924;4.516;2024-03-22T14:58:36;14.20;99.90
24408;DHT22;12542;50.924;4.516;2024-03-22T15:01:06;14.20;99.90
24408;DHT22;12542;50.924;4.516;2024-03-22T15:03:32;14.30;99.90
24408;DHT22;12542;50.924;4.516;2024-03-22T15:05:59;14.30;99.90
24408;DHT22;12542;50.924;4.516;2024-03-22T15:08:25;14.20;99.90
24408;DHT22;12542;50.924;4.516;2024-03-22T15:10:52;14.10;99.90
24408;DHT22;12542;50.924;4.516;2024-03-22T15:13:18;14.00;99.90
24408;DHT22;12542;50.924;4.516;2024-03-22T15:15:57;14.00;99.90
24408;DHT22;12542;50.924;4.516;2024-03-22T15:18:23;14.20;99.90
24408;DHT22;12542;50.924;4.516;2024-03-22T15:20:49;13.70;99.90
24408;DHT22;12542;50.924;4.516;2024-03-22T15:23:17;13.70;99.90